createdAt,value
2023-02-01T00:02:23.249Z,81.16
2023-02-01T00:04:52.249Z,81.55
2023-02-01T00:07:21.011Z,81.22
2023-02-01T00:09:49.846Z,81.09
2023-02-01T00:12:18.724Z,82.01
2023-02-01T00:14:49.464Z,81.18
2023-02-01T00:17:18.246Z,80.99
2023-02-01T00:19:48.493Z,80.63
2023-02-01T00:23:44.588Z,81.54
2023-02-01T00:26:18.529Z,81.58
2023-02-01T00:28:47.925Z,81.47
2023-02-01T00:31:17.882Z,81.18
2023-02-01T00:33:50.373Z,81.30
2023-02-01T00:36:20.963Z,81.14
2023-02-01T00:38:50.048Z,80.65
2023-02-01T00:41:21.334Z,80.88
2023-02-01T00:43:51.500Z,80.91
2023-02-01T00:46:22.721Z,80.87
2023-02-01T00:48:52.330Z,80.56
2023-02-01T00:51:25.894Z,80.31
2023-02-01T00:53:55.579Z,79.95
2023-02-01T00:56:24.747Z,80.21
2023-02-01T00:58:53.685Z,80.39
2023-02-01T01:01:48.394Z,80.17
2023-02-01T01:04:17.627Z,80.08
2023-02-01T01:06:47.860Z,79.90
2023-02-01T01:09:16.753Z,79.75
2023-02-01T01:11:45.914Z,79.69
2023-02-01T01:14:14.730Z,80.00
2023-02-01T01:16:43.716Z,79.54
2023-02-01T01:19:12.907Z,79.52
2023-02-01T01:21:41.826Z,79.16
2023-02-01T01:24:12.512Z,79.23
2023-02-01T01:26:41.505Z,79.58
2023-02-01T01:29:12.476Z,79.17
2023-02-01T01:31:41.366Z,79.20
2023-02-01T01:34:11.399Z,78.47
2023-02-01T01:36:40.291Z,78.43
2023-02-01T01:40:04.375Z,78.08
2023-02-01T01:42:33.307Z,77.74
2023-02-01T01:45:05.988Z,77.77
2023-02-01T01:47:44.471Z,77.54
2023-02-01T01:50:19.740Z,77.50
2023-02-01T01:52:54.123Z,77.26
2023-02-01T01:55:28.190Z,77.38
2023-02-01T01:58:01.122Z,77.41
2023-02-01T02:00:30.296Z,77.47
2023-02-01T02:03:06.039Z,76.86
2023-02-01T02:05:35.251Z,77.19
2023-02-01T02:08:04.110Z,77.14
2023-02-01T02:10:52.443Z,76.78
2023-02-01T02:13:21.862Z,77.17
2023-02-01T02:16:08.964Z,77.08
2023-02-01T02:23:55.984Z,76.62
2023-02-01T02:27:06.751Z,76.86
2023-02-01T02:30:33.560Z,76.58
2023-02-01T02:33:47.613Z,76.78
2023-02-01T02:36:31.294Z,77.20
2023-02-01T02:39:10.858Z,77.26
2023-02-01T02:42:14.538Z,76.94
2023-02-01T02:45:26.642Z,76.87
2023-02-01T02:48:05.163Z,77.04
2023-02-01T02:51:00.339Z,76.99
2023-02-01T02:54:05.861Z,76.10
2023-02-01T02:56:55.014Z,76.39
2023-02-01T02:59:46.168Z,76.61
2023-02-01T03:02:34.665Z,76.58
2023-02-01T03:05:03.775Z,76.23
2023-02-01T03:08:13.699Z,75.79
2023-02-01T03:11:02.227Z,76.30
2023-02-01T03:13:39.596Z,76.14
2023-02-01T03:16:17.600Z,75.80
2023-02-01T03:18:55.327Z,75.35
2023-02-01T03:21:29.255Z,74.97
2023-02-01T03:24:05.171Z,75.80
2023-02-01T03:26:40.973Z,75.64
2023-02-01T03:29:21.298Z,75.37
2023-02-01T03:31:50.710Z,75.28
2023-02-01T03:34:19.882Z,75.50
2023-02-01T03:36:58.364Z,75.22
2023-02-01T03:39:35.046Z,74.85
2023-02-01T03:42:11.526Z,74.87
2023-02-01T03:44:49.034Z,75.07
2023-02-01T03:47:24.106Z,75.17
2023-02-01T03:49:59.922Z,75.21
2023-02-01T03:52:37.967Z,75.30
2023-02-01T03:55:10.941Z,75.01
2023-02-01T03:57:48.540Z,74.75
2023-02-01T04:00:24.849Z,74.24
2023-02-01T04:03:22.678Z,74.36
2023-02-01T04:06:09.214Z,74.28
2023-02-01T04:09:54.280Z,73.61
2023-02-01T04:12:24.612Z,73.67
2023-02-01T04:14:53.867Z,73.92
2023-02-01T04:17:22.855Z,74.17
2023-02-01T04:19:52.177Z,73.94
2023-02-01T04:22:34.718Z,73.27
2023-02-01T04:25:04.477Z,74.31
2023-02-01T04:27:34.771Z,74.19
2023-02-01T04:30:03.867Z,73.67
2023-02-01T04:32:32.749Z,73.67
2023-02-01T04:35:01.597Z,73.13
2023-02-01T04:37:30.425Z,73.11
2023-02-01T04:41:14.575Z,72.75
2023-02-01T04:43:45.371Z,73.13
2023-02-01T04:46:14.356Z,73.40
2023-02-01T04:48:43.666Z,72.76
2023-02-01T04:51:17.275Z,72.69
2023-02-01T04:53:46.538Z,72.51
2023-02-01T04:56:42.817Z,71.76
2023-02-01T04:59:17.289Z,71.82
2023-02-01T05:01:48.539Z,71.59
2023-02-01T05:04:20.104Z,71.89
2023-02-01T05:06:49.443Z,71.78
2023-02-01T05:09:23.314Z,71.94
2023-02-01T05:12:12.624Z,71.81
2023-02-01T05:14:45.088Z,71.72
2023-02-01T05:17:14.023Z,71.63
2023-02-01T05:19:42.942Z,72.01
2023-02-01T05:22:11.755Z,71.67
2023-02-01T05:24:41.240Z,71.85
2023-02-01T05:27:10.471Z,71.29
2023-02-01T05:29:39.629Z,71.93
2023-02-01T05:32:22.103Z,72.11
2023-02-01T05:34:51.977Z,72.01
2023-02-01T05:37:20.906Z,72.21
2023-02-01T05:39:49.716Z,72.09
2023-02-01T05:42:23.629Z,72.40
2023-02-01T05:45:01.376Z,71.98
2023-02-01T05:47:32.776Z,72.54
2023-02-01T05:50:18.501Z,71.91
2023-02-01T05:52:47.889Z,72.05
2023-02-01T05:55:25.805Z,71.07
2023-02-01T05:57:55.164Z,72.23
2023-02-01T06:00:26.605Z,72.50
2023-02-01T06:04:17.619Z,72.55
2023-02-01T06:07:48.500Z,71.55
2023-02-01T06:10:38.670Z,71.84
2023-02-01T06:14:53.879Z,71.14
2023-02-01T06:17:24.488Z,72.26
2023-02-01T06:20:12.174Z,71.86
2023-02-01T06:22:56.958Z,71.73
2023-02-01T06:25:28.713Z,72.30
2023-02-01T06:28:07.416Z,72.27
2023-02-01T06:30:37.679Z,72.22
2023-02-01T06:34:00.762Z,72.58
2023-02-01T06:36:17.151Z,72.81
2023-02-01T06:38:48.131Z,73.06
2023-02-01T06:41:17.688Z,73.35
2023-02-01T06:43:47.781Z,73.48
2023-02-01T06:46:17.750Z,73.34
2023-02-01T06:48:47.607Z,73.73
2023-02-01T06:51:26.750Z,73.97
2023-02-01T06:53:57.275Z,74.67
2023-02-01T06:56:26.573Z,74.57
2023-02-01T06:59:21.433Z,74.77
2023-02-01T07:01:50.273Z,74.49
2023-02-01T07:04:19.145Z,75.08
2023-02-01T07:06:47.925Z,75.46
2023-02-01T07:09:18.856Z,76.27
2023-02-01T07:11:48.058Z,76.76
2023-02-01T07:14:17.037Z,76.66
2023-02-01T07:16:45.885Z,77.81
2023-02-01T07:19:14.596Z,79.73
2023-02-01T07:21:43.430Z,81.56
2023-02-01T07:24:12.147Z,81.25
2023-02-01T07:26:42.551Z,81.51
2023-02-01T07:29:11.743Z,82.49
2023-02-01T07:31:40.709Z,81.66
2023-02-01T07:34:09.551Z,83.30
2023-02-01T07:36:38.361Z,83.64
2023-02-01T07:39:07.338Z,82.96
2023-02-01T07:41:36.111Z,82.26
2023-02-01T07:44:07.227Z,81.89
2023-02-01T07:46:36.973Z,81.81
2023-02-01T07:49:51.084Z,81.42
2023-02-01T07:52:19.833Z,81.41
2023-02-01T07:54:48.673Z,80.84
2023-02-01T07:57:17.452Z,80.69
2023-02-01T08:00:01.566Z,81.37
2023-02-01T08:02:30.694Z,81.40
2023-02-01T08:04:59.673Z,81.85
2023-02-01T08:07:28.407Z,80.58
2023-02-01T08:09:57.136Z,80.58
2023-02-01T08:12:26.543Z,81.09
2023-02-01T08:14:57.505Z,80.78
2023-02-01T08:17:27.333Z,81.01
2023-02-01T08:19:56.322Z,81.28
2023-02-01T08:22:25.144Z,80.36
2023-02-01T08:25:02.370Z,80.93
2023-02-01T08:27:31.307Z,81.15
2023-02-01T08:30:01.743Z,80.76
2023-02-01T08:32:31.793Z,81.48
2023-02-01T08:35:00.618Z,79.71
2023-02-01T08:37:29.437Z,79.19
2023-02-01T08:39:58.180Z,78.74
2023-02-01T08:47:43.493Z,78.55
2023-02-01T08:50:13.241Z,78.50
2023-02-01T08:52:42.020Z,77.34
2023-02-01T08:55:11.968Z,77.66
2023-02-01T08:57:41.437Z,76.62
2023-02-01T09:00:14.374Z,77.22
2023-02-01T09:02:45.209Z,77.66
2023-02-01T09:05:20.137Z,77.69
2023-02-01T09:07:48.877Z,78.25
2023-02-01T09:10:23.493Z,77.77
2023-02-01T09:12:58.608Z,78.26
2023-02-01T09:15:27.469Z,79.05
2023-02-01T09:17:57.636Z,80.06
2023-02-01T09:20:26.629Z,79.49
2023-02-01T09:22:56.753Z,80.89
2023-02-01T09:25:25.741Z,80.91
2023-02-01T09:27:54.468Z,81.46
2023-02-01T09:30:23.639Z,81.22
2023-02-01T09:32:52.513Z,80.72
2023-02-01T09:35:22.810Z,82.43
2023-02-01T09:37:51.471Z,82.17
2023-02-01T09:40:21.458Z,82.59
2023-02-01T09:43:18.978Z,83.97
2023-02-01T09:46:01.911Z,84.79
2023-02-01T09:48:36.803Z,84.27
2023-02-01T09:51:16.785Z,86.29
2023-02-01T09:53:51.711Z,86.73
2023-02-01T09:56:26.914Z,88.47
2023-02-01T09:59:06.489Z,89.57
2023-02-01T10:01:35.502Z,90.48
2023-02-01T10:04:09.172Z,89.88
2023-02-01T10:06:56.834Z,92.08
2023-02-01T10:09:47.885Z,92.61
2023-02-01T10:12:54.815Z,92.88
2023-02-01T10:15:47.066Z,94.29
2023-02-01T10:19:04.131Z,94.28
2023-02-01T10:21:53.846Z,96.20
2023-02-01T10:24:43.989Z,96.07
2023-02-01T10:27:22.701Z,96.31
2023-02-01T10:29:58.987Z,95.53
2023-02-01T10:32:34.901Z,96.97
2023-02-01T10:35:14.695Z,96.53
2023-02-01T10:37:47.628Z,96.44
2023-02-01T10:40:23.449Z,97.96
2023-02-01T10:42:55.413Z,97.48
2023-02-01T10:45:28.770Z,97.49
2023-02-01T10:48:01.163Z,97.47
2023-02-01T10:50:41.679Z,98.22
2023-02-01T10:53:19.312Z,98.47
2023-02-01T10:55:53.481Z,96.08
2023-02-01T10:58:28.897Z,97.50
2023-02-01T11:01:03.970Z,97.45
2023-02-01T11:03:55.841Z,97.32
2023-02-01T11:06:32.250Z,95.67
2023-02-01T11:09:14.019Z,96.01
2023-02-01T11:11:59.125Z,95.07
2023-02-01T11:14:41.696Z,94.48
2023-02-01T11:17:29.400Z,94.54
2023-02-01T11:20:02.218Z,93.94
2023-02-01T11:22:31.443Z,94.14
2023-02-01T11:25:09.891Z,93.72
2023-02-01T11:27:49.543Z,91.20
2023-02-01T11:30:35.543Z,91.45
2023-02-01T11:33:08.074Z,91.57
2023-02-01T11:35:41.631Z,90.66
2023-02-01T11:38:23.326Z,89.95
2023-02-01T11:40:53.562Z,90.07
2023-02-01T11:43:28.289Z,90.16
2023-02-01T11:46:00.982Z,90.32
2023-02-01T11:48:32.141Z,90.56
2023-02-01T11:51:24.371Z,88.72
2023-02-01T11:54:25.825Z,87.68
2023-02-01T11:57:16.170Z,88.49
2023-02-01T12:00:10.684Z,87.24
2023-02-01T12:03:48.334Z,87.17
2023-02-01T12:06:30.976Z,85.59
2023-02-01T12:09:23.665Z,85.30
2023-02-01T12:12:05.306Z,85.59
2023-02-01T12:14:53.577Z,84.23
2023-02-01T12:17:53.619Z,84.21
2023-02-01T12:20:47.296Z,83.08
2023-02-01T12:23:37.067Z,83.02
2023-02-01T12:26:44.771Z,84.18
2023-02-01T12:29:36.992Z,83.01
2023-02-01T12:32:23.352Z,83.37
2023-02-01T12:35:22.338Z,83.15
2023-02-01T12:38:12.899Z,82.57
2023-02-01T12:41:03.816Z,82.11
2023-02-01T12:43:45.594Z,82.85
2023-02-01T12:46:24.948Z,82.07
2023-02-01T12:49:02.842Z,82.00
2023-02-01T12:51:39.090Z,83.03
2023-02-01T12:54:21.683Z,82.95
2023-02-01T12:56:56.810Z,81.92
2023-02-01T12:59:33.942Z,81.33
2023-02-01T13:02:16.972Z,80.56
2023-02-01T13:05:02.734Z,80.24
2023-02-01T13:07:40.771Z,81.54
2023-02-01T13:10:19.405Z,80.83
2023-02-01T13:12:58.888Z,80.70
2023-02-01T13:15:34.967Z,80.48
2023-02-01T13:18:13.056Z,80.41
2023-02-01T13:20:55.674Z,79.29
2023-02-01T13:23:33.840Z,78.55
2023-02-01T13:26:02.714Z,79.24
2023-02-01T13:28:42.305Z,78.66
2023-02-01T13:32:01.050Z,77.74
2023-02-01T13:35:11.760Z,77.15
2023-02-01T13:38:07.480Z,76.39
2023-02-01T13:40:46.573Z,76.20
2023-02-01T13:43:21.669Z,77.50
2023-02-01T13:45:55.948Z,77.27
2023-02-01T13:48:31.202Z,76.74
2023-02-01T13:51:03.810Z,76.74
2023-02-01T13:53:37.874Z,76.45
2023-02-01T13:56:14.089Z,75.87
2023-02-01T13:58:45.386Z,75.32
2023-02-01T14:01:47.087Z,74.92
2023-02-01T14:04:51.715Z,74.46
2023-02-01T14:07:25.382Z,74.23
2023-02-01T14:09:54.606Z,74.29
2023-02-01T14:16:29.851Z,73.16
2023-02-01T14:19:39.252Z,72.75
2023-02-01T14:22:37.103Z,73.07
2023-02-01T14:25:18.102Z,72.06
2023-02-01T14:27:47.289Z,73.51
2023-02-01T14:30:19.615Z,73.25
2023-02-01T14:32:49.487Z,73.53
2023-02-01T14:35:26.300Z,73.46
2023-02-01T14:38:05.210Z,72.62
2023-02-01T14:40:35.367Z,73.26
2023-02-01T14:43:26.602Z,72.46
2023-02-01T14:45:59.977Z,72.25
2023-02-01T14:48:49.690Z,72.06
2023-02-01T14:51:21.496Z,71.98
2023-02-01T14:53:53.020Z,71.75
2023-02-01T14:56:23.577Z,71.37
2023-02-01T14:59:00.016Z,72.51
2023-02-01T15:01:32.739Z,72.11
2023-02-01T15:04:07.654Z,72.04
2023-02-01T15:06:42.163Z,72.43
2023-02-01T15:09:18.094Z,73.14
2023-02-01T15:12:02.648Z,72.45
2023-02-01T15:19:58.860Z,75.09
2023-02-01T15:22:27.837Z,75.66
2023-02-01T15:24:57.401Z,75.83
2023-02-01T15:27:26.143Z,75.18
2023-02-01T15:29:56.674Z,74.49
2023-02-01T15:32:34.685Z,76.18
2023-02-01T15:35:05.477Z,75.51
2023-02-01T15:37:34.896Z,76.50
2023-02-01T15:40:25.900Z,76.00
2023-02-01T15:43:00.625Z,76.20
2023-02-01T15:45:34.292Z,76.29
2023-02-01T15:48:04.972Z,76.20
2023-02-01T15:50:35.625Z,77.12
2023-02-01T15:53:06.141Z,76.60
2023-02-01T15:55:43.206Z,76.40
2023-02-01T15:58:21.516Z,76.13
2023-02-01T16:00:53.930Z,76.95
2023-02-01T16:03:37.379Z,78.28
2023-02-01T16:06:11.584Z,79.85
2023-02-01T16:08:53.058Z,81.73
2023-02-01T16:11:34.297Z,82.22
2023-02-01T16:14:03.682Z,83.02
2023-02-01T16:16:32.785Z,83.18
2023-02-01T16:19:01.624Z,84.09
2023-02-01T16:21:31.847Z,84.77
2023-02-01T16:24:04.837Z,85.50
2023-02-01T16:26:35.359Z,85.50
2023-02-01T16:29:07.475Z,85.70
2023-02-01T16:31:40.431Z,85.49
2023-02-01T16:34:15.873Z,85.44
2023-02-01T16:36:47.181Z,85.44
2023-02-01T16:44:21.757Z,85.63
2023-02-01T16:47:11.917Z,86.01
2023-02-01T16:49:42.916Z,85.81
2023-02-01T16:52:23.747Z,85.61
2023-02-01T16:54:51.460Z,86.10
2023-02-01T16:57:28.344Z,86.37
2023-02-01T16:59:59.541Z,86.85
2023-02-01T17:05:08.804Z,89.10
2023-02-01T17:07:38.709Z,89.70
2023-02-01T17:12:54.423Z,88.49
2023-02-01T17:15:23.776Z,90.33
2023-02-01T17:17:54.458Z,90.63
2023-02-01T17:20:27.319Z,93.12
2023-02-01T17:27:59.314Z,95.53
2023-02-01T17:30:27.128Z,96.10
2023-02-01T17:33:27.759Z,92.86
2023-02-01T17:36:11.384Z,94.35
2023-02-01T17:39:05.395Z,94.72
2023-02-01T17:42:06.833Z,94.66
2023-02-01T17:44:35.863Z,94.16
2023-02-01T17:51:18.624Z,95.13
2023-02-01T17:53:47.515Z,94.83
2023-02-01T17:56:18.672Z,94.69
2023-02-01T17:58:47.656Z,96.73
2023-02-01T18:01:23.984Z,96.04
2023-02-01T18:03:52.354Z,95.84
2023-02-01T18:07:22.140Z,95.48
2023-02-01T18:12:41.054Z,95.62
2023-02-01T18:15:29.997Z,96.65
2023-02-01T18:17:58.940Z,95.64
2023-02-01T18:20:29.980Z,94.94
2023-02-01T18:23:02.163Z,96.19
2023-02-01T18:25:37.232Z,97.03
2023-02-01T18:28:07.616Z,97.55
2023-02-01T18:30:40.237Z,96.88
2023-02-01T18:33:17.339Z,95.56
2023-02-01T18:35:48.328Z,95.97
2023-02-01T18:38:17.406Z,95.46
2023-02-01T18:40:52.386Z,96.27
2023-02-01T18:43:24.583Z,95.37
2023-02-01T18:45:59.056Z,95.26
2023-02-01T18:48:31.267Z,94.44
2023-02-01T18:51:00.110Z,94.83
2023-02-01T18:53:29.347Z,93.82
2023-02-01T18:56:03.479Z,92.64
2023-02-01T18:58:36.254Z,91.84
2023-02-01T19:01:16.152Z,91.57
2023-02-01T19:03:55.412Z,91.81
2023-02-01T19:06:34.713Z,92.17
2023-02-01T19:09:05.078Z,91.82
2023-02-01T19:11:35.593Z,92.63
2023-02-01T19:14:07.345Z,92.06
2023-02-01T19:17:09.226Z,91.74
2023-02-01T19:19:41.062Z,90.95
2023-02-01T19:22:10.904Z,91.40
2023-02-01T19:24:41.498Z,91.68
2023-02-01T19:27:10.862Z,91.30
2023-02-01T19:29:46.270Z,92.20
2023-02-01T19:32:17.497Z,91.64
2023-02-01T19:34:46.490Z,90.98
2023-02-01T19:37:16.815Z,92.08
2023-02-01T19:39:46.251Z,91.83
2023-02-01T19:42:16.183Z,91.31
2023-02-01T19:44:47.874Z,90.84
2023-02-01T19:47:20.361Z,91.28
2023-02-01T19:50:19.704Z,91.83
2023-02-01T19:52:53.024Z,91.91
2023-02-01T19:55:22.685Z,91.38
2023-02-01T19:57:52.116Z,91.05
2023-02-01T20:00:22.696Z,91.13
2023-02-01T20:02:51.783Z,90.46
2023-02-01T20:05:23.656Z,90.25
2023-02-01T20:07:52.828Z,90.39
2023-02-01T20:10:23.413Z,90.65
2023-02-01T20:12:52.731Z,90.93
2023-02-01T20:15:25.064Z,90.81
2023-02-01T20:17:54.733Z,90.49
2023-02-01T20:20:29.835Z,90.53
2023-02-01T20:22:59.042Z,90.29
2023-02-01T20:25:28.033Z,90.08
2023-02-01T20:27:58.930Z,89.40
2023-02-01T20:30:29.552Z,89.45
2023-02-01T20:32:58.279Z,88.69
2023-02-01T20:35:27.359Z,88.76
2023-02-01T20:37:59.252Z,88.49
2023-02-01T20:40:28.115Z,88.52
2023-02-01T20:42:58.099Z,89.00
2023-02-01T20:45:28.963Z,88.79
2023-02-01T20:47:57.686Z,89.83
2023-02-01T20:50:26.389Z,89.23
2023-02-01T20:52:55.011Z,89.20
2023-02-01T20:55:26.446Z,88.80
2023-02-01T20:57:55.356Z,89.67
2023-02-01T21:00:24.861Z,89.57
2023-02-01T21:02:55.396Z,88.81
2023-02-01T21:05:25.796Z,88.77
2023-02-01T21:07:55.000Z,88.49
2023-02-01T21:10:23.757Z,88.22
2023-02-01T21:13:03.892Z,88.88
2023-02-01T21:15:36.292Z,88.77
2023-02-01T21:18:10.965Z,88.73
2023-02-01T21:20:39.650Z,88.93
2023-02-01T21:23:10.048Z,89.33
2023-02-01T21:25:41.962Z,88.77
2023-02-01T21:28:11.773Z,88.11
2023-02-01T21:30:41.239Z,88.88
2023-02-01T21:33:11.372Z,88.64
2023-02-01T21:35:43.336Z,88.22
2023-02-01T21:38:12.241Z,88.55
2023-02-01T21:40:41.008Z,88.82
2023-02-01T21:43:09.761Z,88.95
2023-02-01T21:45:43.539Z,88.90
2023-02-01T21:48:14.990Z,89.36
2023-02-01T21:50:43.713Z,89.55
2023-02-01T21:53:12.531Z,89.46
2023-02-01T21:55:41.226Z,89.43
2023-02-01T21:58:12.746Z,90.03
2023-02-01T22:00:45.793Z,90.53
2023-02-01T22:03:16.214Z,90.50
2023-02-01T22:05:44.925Z,90.62
2023-02-01T22:08:13.584Z,90.53
2023-02-01T22:10:42.399Z,90.99
2023-02-01T22:13:11.017Z,91.08
2023-02-01T22:15:39.775Z,90.66
2023-02-01T22:18:08.716Z,90.54
2023-02-01T22:20:39.146Z,90.19
2023-02-01T22:23:07.941Z,89.85
2023-02-01T22:25:36.676Z,90.09
2023-02-01T22:28:31.744Z,90.11
2023-02-01T22:30:55.276Z,90.23
2023-02-01T22:33:24.285Z,89.99
2023-02-01T22:35:54.618Z,90.22
2023-02-01T22:38:24.382Z,90.31
2023-02-01T22:40:56.395Z,90.34
2023-02-01T22:43:25.872Z,90.00
2023-02-01T22:45:54.854Z,89.68
2023-02-01T22:48:23.664Z,88.91
2023-02-01T22:50:57.881Z,88.79
2023-02-01T22:53:27.981Z,87.97
2023-02-01T22:56:02.303Z,87.79
2023-02-01T22:58:31.171Z,88.10
2023-02-01T23:01:08.617Z,87.05
2023-02-01T23:03:37.774Z,87.21
2023-02-01T23:06:09.890Z,87.36
2023-02-01T23:08:40.529Z,87.36
2023-02-01T23:11:11.832Z,87.47
2023-02-01T23:13:40.799Z,86.70
2023-02-01T23:16:12.850Z,86.74
2023-02-01T23:18:42.813Z,86.45
2023-02-01T23:21:16.412Z,86.68
2023-02-01T23:23:49.052Z,86.61
2023-02-01T23:26:18.658Z,86.30
2023-02-01T23:28:47.790Z,86.96
2023-02-01T23:31:16.860Z,86.63
2023-02-01T23:33:49.100Z,86.99
2023-02-01T23:36:19.228Z,86.96
2023-02-01T23:38:49.347Z,86.89
2023-02-01T23:41:21.268Z,86.77
2023-02-01T23:43:59.113Z,86.95
2023-02-01T23:46:31.568Z,86.96
2023-02-01T23:49:01.763Z,86.47
2023-02-01T23:51:33.021Z,86.39
2023-02-01T23:54:02.380Z,85.87
2023-02-01T23:56:34.045Z,85.44
2023-02-01T23:59:05.375Z,85.78
